EDT,Max TemperatureF,Mean TemperatureF,Min TemperatureF,Max Dew PointF,MeanDew PointF,Min DewpointF,Max Humidity, Mean Humidity, Min Humidity, Max Sea Level PressureIn, Mean Sea Level PressureIn, Min Sea Level PressureIn, Max VisibilityMiles, Mean VisibilityMiles, Min VisibilityMiles, Max Wind SpeedMPH, Mean Wind SpeedMPH, Max Gust SpeedMPH,PrecipitationIn, CloudCover, Events, WindDirDegrees
2013-6-1,85,74,63,63,61,57,87,67,47,30.01,29.93,29.82,10,10,10,21,9,29,0.00,2,,209
2013-6-2,79,71,63,65,61,55,87,68,48,29.87,29.82,29.78,10,8,0,24,9,33,0.28,6,Fog-Rain,244
2013-6-3,68,58,48,55,48,35,87,61,34,30.06,29.94,29.85,10,10,2,15,7,21,0.00,5,,317
2013-6-4,72,56,39,43,39,36,92,61,29,30.16,30.12,30.07,10,10,10,14,5,20,0.00,0,,325
2013-6-5,77,62,46,53,44,36,71,53,34,30.18,30.09,29.99,10,10,10,15,7,18,0.00,0,,111
2013-6-6,65,62,59,58,56,53,90,79,67,29.98,29.89,29.82,10,6,1,15,9,25,0.88,8,Rain,134
2013-6-7,68,63,57,63,60,55,97,89,81,29.84,29.79,29.73,10,4,0,13,4,15,0.20,8,Fog-Rain,73
2013-6-8,68,61,54,55,53,51,93,76,58,30.13,29.96,29.81,10,7,1,13,6,17,0.00,7,,275
2013-6-9,79,65,50,59,52,46,93,65,37,30.20,30.15,30.07,10,6,2,10,4,14,0.00,3,,85
2013-6-10,70,68,65,66,63,59,93,83,73,30.10,29.91,29.78,10,5,1,14,7,20,0.86,7,Rain-Thunderstorm,138
2013-6-11,69,65,60,63,60,58,93,81,68,29.88,29.81,29.75,10,7,1,20,11,28,0.39,7,Rain,269
2013-6-12,77,68,59,64,60,57,97,79,60,29.94,29.88,29.78,10,5,0,12,4,15,T,5,Fog,289
2013-6-13,69,62,55,64,59,51,93,83,72,29.79,29.64,29.49,10,7,2,24,12,33,0.21,7,Rain-Thunderstorm,275
2013-6-14,74,63,51,54,51,49,89,68,46,30.04,29.91,29.77,10,10,10,15,6,22,0.00,3,,319
2013-6-15,74,63,51,54,49,42,96,65,33,30.11,30.05,30.01,10,6,0,14,6,18,0.00,0,Fog,257
2013-6-16,75,67,59,64,60,45,90,71,52,30.01,29.92,29.85,10,8,2,22,9,31,0.04,7,Rain-Thunderstorm,233
2013-6-17,80,71,61,64,60,53,93,68,42,29.99,29.94,29.90,10,7,2,15,6,21,0.01,4,,252
2013-6-18,76,67,57,58,56,50,84,69,53,29.97,29.90,29.85,10,10,10,15,6,20,0.00,2,,23
2013-6-19,75,62,49,50,44,41,83,58,33,30.17,30.08,29.98,10,10,10,10,5,16,0.00,0,,45
2013-6-20,80,65,49,53,47,43,83,57,30,30.24,30.21,30.18,10,10,10,13,2,15,0.00,0,,145
2013-6-21,81,67,53,59,52,47,83,61,39,30.27,30.24,30.19,10,10,9,12,3,23,0.00,1,,168
2013-6-22,84,72,59,64,61,55,90,71,51,30.21,30.16,30.09,10,9,2,15,6,18,0.00,0,,201
2013-6-23,87,76,65,67,63,62,93,69,45,30.18,30.12,30.05,10,9,2,15,5,33,0.00,0,,220
2013-6-24,86,77,67,65,62,59,84,64,43,30.13,30.08,30.00,10,9,6,18,6,23,0.00,0,,245
2013-6-25,82,74,65,72,66,61,93,78,62,30.04,29.98,29.89,10,6,1,25,8,36,0.64,5,Rain-Thunderstorm,253
2013-6-26,78,71,64,65,63,61,93,77,60,29.97,29.90,29.84,10,9,5,16,6,21,0.07,5,Rain,248
2013-6-27,71,68,64,66,64,63,93,89,84,29.87,29.75,29.63,10,3,0,12,4,17,1.93,7,Fog-Rain-Thunderstorm,83
2013-6-28,77,69,61,66,62,57,97,83,68,29.67,29.58,29.51,10,6,0,20,7,25,0.13,6,Fog-Rain-Thunderstorm,242
2013-6-29,76,68,59,63,60,57,93,80,66,29.75,29.64,29.52,10,6,0,15,7,20,0.08,7,Fog-Rain-Thunderstorm,234
2013-6-30,82,69,56,67,59,55,93,76,58,29.88,29.78,29.72,10,4,0,26,3,35,T,2,Fog-Rain-Thunderstorm,93